Terminal Aerodrome Forecast
Issued by NWS Paducah, KY

Home | Current Version | Previous Version | Text Only | Print | Product List | Glossary On
Versions: 1 2 3 4 5 6 7 8 9 10 11 12 13 14 15 16 17 18 19 20 21 22 23 24 25 26
000
FTUS43 KPAH 280520
TAFEVV
TAF
KEVV 280520Z 2806/2906 VRB03KT P6SM BKN150
     FM280900 VRB02KT 4SM BR VCTS SCT020CB OVC040
      TEMPO 2809/2811 2SM -SHRA BR SCT003 OVC015
     FM281500 24005KT P6SM BKN035=

USA.gov is the U.S. government's official web portal to all federal, state and local government web resources and services.